createdAt,value
2022-11-03T00:02:00.822Z,7.45
2022-11-03T00:04:27.609Z,7.42
2022-11-03T00:06:55.403Z,7.41
2022-11-03T00:09:23.288Z,7.42
2022-11-03T00:11:51.247Z,7.36
2022-11-03T00:14:18.533Z,7.38
2022-11-03T00:16:45.791Z,7.37
2022-11-03T00:19:14.474Z,7.01
2022-11-03T00:21:41.008Z,7.34
2022-11-03T00:24:07.840Z,7.27
2022-11-03T00:26:35.949Z,7.35
2022-11-03T00:29:13.337Z,7.36
2022-11-03T00:31:42.284Z,7.38
2022-11-03T00:34:09.945Z,7.27
2022-11-03T00:36:39.220Z,7.39
2022-11-03T00:39:06.456Z,7.30
2022-11-03T00:41:33.593Z,7.39
2022-11-03T00:44:00.205Z,7.39
2022-11-03T00:46:27.200Z,7.39
2022-11-03T00:48:53.726Z,7.38
2022-11-03T00:51:30.630Z,7.35
2022-11-03T00:54:02.008Z,7.28
2022-11-03T00:56:31.637Z,7.27
2022-11-03T00:59:00.054Z,7.23
2022-11-03T01:01:29.319Z,7.28
2022-11-03T01:04:16.331Z,7.26
2022-11-03T01:06:51.337Z,7.15
2022-11-03T01:09:24.205Z,7.18
2022-11-03T01:12:07.876Z,7.13
2022-11-03T01:14:46.053Z,7.07
2022-11-03T01:17:18.597Z,6.93
2022-11-03T01:19:45.202Z,7.03
2022-11-03T01:22:12.683Z,7.11
2022-11-03T01:24:43.515Z,7.09
2022-11-03T01:27:13.108Z,7.08
2022-11-03T01:29:40.042Z,7.06
2022-11-03T01:32:08.382Z,7.07
2022-11-03T01:34:35.774Z,7.06
2022-11-03T01:37:03.103Z,7.02
2022-11-03T01:39:29.767Z,7.03
2022-11-03T01:41:56.382Z,7.01
2022-11-03T01:44:22.843Z,6.98
2022-11-03T01:46:57.488Z,6.88
2022-11-03T01:49:30.427Z,6.89
2022-11-03T01:52:11.418Z,6.92
2022-11-03T01:54:41.529Z,6.91
2022-11-03T01:57:15.759Z,6.74
2022-11-03T01:59:44.825Z,6.86
2022-11-03T02:02:11.967Z,6.77
2022-11-03T02:04:38.595Z,6.49
2022-11-03T02:07:16.807Z,6.74
2022-11-03T02:09:43.338Z,6.72
2022-11-03T02:12:10.678Z,6.67
2022-11-03T02:14:48.856Z,6.57
2022-11-03T02:17:17.208Z,6.42
2022-11-03T02:20:04.873Z,6.52
2022-11-03T02:22:47.565Z,6.46
2022-11-03T02:25:32.324Z,6.53
2022-11-03T02:27:59.630Z,6.43
2022-11-03T02:30:36.514Z,6.46
2022-11-03T02:33:20.614Z,6.39
2022-11-03T02:35:54.848Z,6.28
2022-11-03T02:38:23.627Z,6.33
2022-11-03T02:40:54.412Z,6.11
2022-11-03T02:43:23.595Z,6.10
2022-11-03T02:45:51.665Z,6.18
2022-11-03T02:48:19.002Z,6.12
2022-11-03T02:50:48.080Z,6.08
2022-11-03T02:53:15.676Z,6.25
2022-11-03T02:56:03.675Z,6.24
2022-11-03T02:58:48.379Z,6.25
2022-11-03T03:01:22.680Z,6.26
2022-11-03T03:03:57.859Z,6.27
2022-11-03T03:06:57.347Z,6.26
2022-11-03T03:09:32.260Z,6.24
2022-11-03T03:12:00.862Z,6.20
2022-11-03T03:14:49.736Z,6.16
2022-11-03T03:17:25.908Z,6.13
2022-11-03T03:20:07.473Z,6.14
2022-11-03T03:22:42.994Z,6.14
2022-11-03T03:25:16.030Z,6.12
2022-11-03T03:27:47.659Z,6.13
2022-11-03T03:30:14.712Z,6.14
2022-11-03T03:32:46.732Z,6.12
2022-11-03T03:35:19.139Z,6.03
2022-11-03T03:37:50.238Z,6.03
2022-11-03T03:40:22.852Z,6.01
2022-11-03T03:42:51.533Z,6.04
2022-11-03T03:45:19.573Z,6.06
2022-11-03T03:47:46.811Z,6.06
2022-11-03T03:50:13.479Z,6.07
2022-11-03T03:52:40.093Z,6.10
2022-11-03T03:55:14.440Z,6.10
2022-11-03T03:57:41.068Z,6.07
2022-11-03T04:00:09.121Z,6.03
2022-11-03T04:02:39.052Z,6.05
2022-11-03T04:05:06.134Z,5.98
2022-11-03T04:07:47.715Z,5.82
2022-11-03T04:10:19.134Z,5.97
2022-11-03T04:13:04.131Z,6.05
2022-11-03T04:15:50.615Z,5.93
2022-11-03T04:18:40.418Z,5.72
2022-11-03T04:21:28.685Z,5.99
2022-11-03T04:23:55.207Z,5.98
2022-11-03T04:26:25.241Z,5.97
2022-11-03T04:28:53.255Z,5.61
2022-11-03T04:31:20.559Z,5.86
2022-11-03T04:33:48.256Z,5.77
2022-11-03T04:36:21.746Z,5.72
2022-11-03T04:38:49.341Z,5.65
2022-11-03T04:41:19.945Z,5.69
2022-11-03T04:43:46.772Z,5.54
2022-11-03T04:46:16.402Z,5.63
2022-11-03T04:48:44.223Z,5.61
2022-11-03T04:51:14.758Z,5.62
2022-11-03T04:53:47.438Z,5.61
2022-11-03T04:56:17.131Z,5.58
2022-11-03T04:58:43.705Z,5.55
2022-11-03T05:01:13.091Z,5.53
2022-11-03T05:03:42.041Z,5.51
2022-11-03T05:06:18.126Z,5.49
2022-11-03T05:08:48.160Z,5.52
2022-11-03T05:11:37.380Z,5.52
2022-11-03T05:14:15.415Z,5.29
2022-11-03T05:16:42.662Z,5.44
2022-11-03T05:19:18.210Z,5.53
2022-11-03T05:21:45.027Z,5.55
2022-11-03T05:26:45.468Z,5.50
2022-11-03T05:29:25.502Z,5.54
2022-11-03T05:31:53.875Z,5.57
2022-11-03T05:34:26.139Z,5.60
2022-11-03T05:36:52.664Z,5.58
2022-11-03T05:39:35.945Z,5.45
2022-11-03T05:42:06.671Z,5.55
2022-11-03T05:44:39.568Z,5.58
2022-11-03T05:47:14.293Z,5.61
2022-11-03T05:49:41.071Z,5.63
2022-11-03T05:52:24.037Z,5.67
2022-11-03T05:54:53.268Z,5.66
2022-11-03T05:57:20.107Z,5.72
2022-11-03T05:59:49.704Z,5.39
2022-11-03T06:02:42.147Z,5.72
2022-11-03T06:05:21.386Z,5.75
2022-11-03T06:07:49.518Z,5.71
2022-11-03T06:10:26.712Z,5.83
2022-11-03T06:13:01.197Z,5.79
2022-11-03T06:15:33.925Z,5.91
2022-11-03T06:18:10.174Z,5.85
2022-11-03T06:20:36.770Z,5.87
2022-11-03T06:23:03.439Z,5.99
2022-11-03T06:25:33.245Z,5.98
2022-11-03T06:28:03.222Z,5.98
2022-11-03T06:30:32.369Z,5.98
2022-11-03T06:33:01.842Z,5.99
2022-11-03T06:35:28.331Z,6.02
2022-11-03T06:37:57.743Z,6.01
2022-11-03T06:40:35.969Z,6.05
2022-11-03T06:43:13.720Z,6.10
2022-11-03T06:45:49.759Z,6.15
2022-11-03T06:48:22.865Z,6.18
2022-11-03T06:50:49.402Z,6.14
2022-11-03T06:53:22.411Z,6.17
2022-11-03T06:55:49.774Z,5.89
2022-11-03T06:58:19.951Z,6.31
2022-11-03T07:00:50.902Z,6.31
2022-11-03T07:03:21.562Z,6.39
2022-11-03T07:05:48.145Z,6.43
2022-11-03T07:08:23.480Z,6.56
2022-11-03T07:11:25.913Z,6.55
2022-11-03T07:13:57.507Z,6.57
2022-11-03T07:16:30.018Z,6.49
2022-11-03T07:18:59.789Z,6.60
2022-11-03T07:21:44.696Z,6.59
2022-11-03T07:24:17.975Z,6.59
2022-11-03T07:26:44.622Z,6.56
2022-11-03T07:29:20.871Z,6.35
2022-11-03T07:31:48.133Z,6.68
2022-11-03T07:34:20.847Z,6.67
2022-11-03T07:36:52.849Z,6.56
2022-11-03T07:39:22.360Z,6.68
2022-11-03T07:41:49.682Z,6.73
2022-11-03T07:44:22.764Z,6.77
2022-11-03T07:46:50.626Z,6.86
2022-11-03T07:49:28.084Z,6.86
2022-11-03T07:51:59.697Z,6.82
2022-11-03T07:54:30.799Z,6.88
2022-11-03T07:57:04.781Z,6.90
2022-11-03T07:59:35.220Z,7.04
2022-11-03T08:02:03.158Z,7.02
2022-11-03T08:04:32.916Z,7.14
2022-11-03T08:06:59.528Z,7.10
2022-11-03T08:09:26.101Z,7.21
2022-11-03T08:11:52.968Z,7.26
2022-11-03T08:14:19.478Z,7.23
2022-11-03T08:16:46.095Z,7.24
2022-11-03T08:19:12.608Z,7.18
2022-11-03T08:21:39.349Z,7.29
2022-11-03T08:24:07.001Z,7.35
2022-11-03T08:26:33.681Z,7.26
2022-11-03T08:29:00.289Z,7.40
2022-11-03T08:31:27.083Z,7.49
2022-11-03T08:33:53.592Z,7.51
2022-11-03T08:36:20.865Z,7.51
2022-11-03T08:38:47.510Z,7.39
2022-11-03T08:41:14.291Z,7.38
2022-11-03T08:43:40.829Z,7.43
2022-11-03T08:46:15.776Z,7.47
2022-11-03T08:48:44.852Z,7.54
2022-11-03T08:51:13.987Z,7.68
2022-11-03T08:53:44.391Z,7.79
2022-11-03T08:56:13.797Z,7.81
2022-11-03T08:58:43.006Z,7.38
2022-11-03T09:01:09.669Z,7.81
2022-11-03T09:03:36.268Z,7.93
2022-11-03T09:06:02.781Z,7.97
2022-11-03T09:11:15.832Z,8.07
2022-11-03T09:13:42.340Z,8.19
2022-11-03T09:16:08.847Z,8.24
2022-11-03T09:18:35.412Z,8.22
2022-11-03T09:21:01.994Z,8.26
2022-11-03T09:23:28.498Z,8.00
2022-11-03T09:25:55.068Z,8.41
2022-11-03T09:28:21.551Z,8.49
2022-11-03T09:30:48.108Z,8.50
2022-11-03T09:33:14.614Z,8.45
2022-11-03T09:35:41.125Z,8.50
2022-11-03T09:38:08.139Z,8.59
2022-11-03T09:40:36.012Z,8.65
2022-11-03T09:43:02.977Z,8.62
2022-11-03T09:45:29.763Z,8.63
2022-11-03T09:47:56.581Z,8.69
2022-11-03T09:50:23.831Z,8.72
2022-11-03T09:52:55.254Z,8.94
2022-11-03T09:55:25.892Z,8.99
2022-11-03T09:57:54.860Z,9.01
2022-11-03T10:00:23.177Z,9.03
2022-11-03T10:02:50.757Z,9.06
2022-11-03T10:05:26.108Z,9.03
2022-11-03T10:07:58.034Z,9.17
2022-11-03T10:10:25.164Z,9.13
2022-11-03T10:12:53.235Z,9.19
2022-11-03T10:15:22.523Z,9.16
2022-11-03T10:17:52.354Z,9.26
2022-11-03T10:20:21.768Z,9.27
2022-11-03T10:22:52.877Z,9.36
2022-11-03T10:25:39.214Z,9.43
2022-11-03T10:28:14.701Z,9.12
2022-11-03T10:31:10.784Z,9.54
2022-11-03T10:33:52.225Z,9.59
2022-11-03T10:36:18.710Z,9.63
2022-11-03T10:38:45.559Z,9.78
2022-11-03T10:41:20.254Z,9.70
2022-11-03T10:44:18.126Z,9.73
2022-11-03T10:47:06.357Z,10.08
2022-11-03T10:49:39.257Z,10.06
2022-11-03T10:52:20.641Z,10.17
2022-11-03T10:54:47.873Z,10.20
2022-11-03T10:57:15.425Z,10.23
2022-11-03T10:59:43.939Z,10.24
2022-11-03T11:02:16.069Z,10.25
2022-11-03T11:04:43.102Z,10.30
2022-11-03T11:07:35.583Z,10.34
2022-11-03T11:10:24.616Z,10.35
2022-11-03T11:13:19.021Z,10.41
2022-11-03T11:15:47.775Z,10.56
2022-11-03T11:18:29.424Z,10.68
2022-11-03T11:21:00.654Z,10.68
2022-11-03T11:23:27.166Z,10.72
2022-11-03T11:26:14.402Z,10.68
2022-11-03T11:28:46.545Z,10.57
2022-11-03T11:31:30.873Z,10.56
2022-11-03T11:34:09.677Z,10.86
2022-11-03T11:36:41.247Z,11.05
2022-11-03T11:39:22.869Z,11.24
2022-11-03T11:42:18.624Z,11.42
2022-11-03T11:44:45.895Z,11.30
2022-11-03T11:47:39.592Z,11.37
2022-11-03T11:50:15.026Z,11.29
2022-11-03T11:53:01.802Z,11.43
2022-11-03T11:55:40.178Z,11.49
2022-11-03T11:58:16.929Z,11.66
2022-11-03T12:00:56.973Z,11.79
2022-11-03T12:03:28.077Z,12.02
2022-11-03T12:05:54.630Z,12.12
2022-11-03T12:08:28.556Z,12.29
2022-11-03T12:10:59.430Z,12.28
2022-11-03T12:13:41.718Z,12.25
2022-11-03T12:16:08.648Z,12.20
2022-11-03T12:18:40.882Z,12.18
2022-11-03T12:21:30.703Z,12.23
2022-11-03T12:23:57.214Z,12.18
2022-11-03T12:26:29.513Z,12.07
2022-11-03T12:28:56.008Z,11.91
2022-11-03T12:31:22.526Z,11.73
2022-11-03T12:33:49.023Z,11.66
2022-11-03T12:36:15.512Z,11.73
2022-11-03T12:38:42.439Z,11.77
2022-11-03T12:41:27.088Z,11.68
2022-11-03T12:43:55.914Z,11.69
2022-11-03T12:46:22.821Z,11.58
2022-11-03T12:48:50.043Z,11.56
2022-11-03T12:51:18.249Z,11.50
2022-11-03T12:53:45.370Z,11.62
2022-11-03T12:56:12.826Z,11.58
2022-11-03T12:58:39.720Z,11.63
2022-11-03T13:01:06.867Z,11.61
2022-11-03T13:03:34.527Z,11.64
2022-11-03T13:06:04.418Z,11.70
2022-11-03T13:08:31.744Z,11.68
2022-11-03T13:10:58.557Z,11.76
2022-11-03T13:13:25.471Z,11.85
2022-11-03T13:15:53.082Z,11.73
2022-11-03T13:18:20.440Z,11.86
2022-11-03T13:20:46.933Z,11.93
2022-11-03T13:23:15.282Z,11.91
2022-11-03T13:25:46.420Z,12.07
2022-11-03T13:28:13.027Z,12.00
2022-11-03T13:30:40.390Z,12.04
2022-11-03T13:33:07.262Z,12.16
2022-11-03T13:35:33.994Z,12.21
2022-11-03T13:38:00.500Z,12.27
2022-11-03T13:40:54.689Z,12.21
2022-11-03T13:43:13.752Z,12.25
2022-11-03T13:45:40.284Z,12.23
2022-11-03T13:49:21.534Z,12.29
2022-11-03T13:50:53.743Z,12.19
2022-11-03T13:56:08.897Z,12.25
2022-11-03T14:01:23.904Z,12.37
2022-11-03T14:06:37.254Z,12.37
2022-11-03T14:09:03.836Z,12.40
2022-11-03T14:11:48.706Z,12.38
2022-11-03T14:14:15.279Z,12.30
2022-11-03T14:16:41.863Z,12.37
2022-11-03T14:19:08.717Z,12.35
2022-11-03T14:21:37.467Z,12.37
2022-11-03T14:24:07.043Z,12.40
2022-11-03T14:26:42.787Z,12.41
2022-11-03T14:29:09.966Z,12.36
2022-11-03T14:31:36.765Z,12.41
2022-11-03T14:34:03.407Z,12.48
2022-11-03T14:36:29.939Z,12.16
2022-11-03T14:38:56.523Z,12.42
2022-11-03T14:41:41.363Z,12.38
2022-11-03T14:44:08.098Z,12.32
2022-11-03T14:46:34.611Z,12.35
2022-11-03T14:49:02.157Z,12.33
2022-11-03T14:51:29.556Z,12.20
2022-11-03T14:53:57.632Z,12.25
2022-11-03T14:56:24.744Z,12.28
2022-11-03T14:58:51.374Z,11.96
2022-11-03T15:01:18.669Z,12.25
2022-11-03T15:03:45.759Z,12.20
2022-11-03T15:06:12.877Z,12.09
2022-11-03T15:08:39.485Z,12.10
2022-11-03T15:11:10.519Z,12.04
2022-11-03T15:13:43.963Z,11.99
2022-11-03T15:16:13.631Z,11.92
2022-11-03T15:18:40.509Z,11.82
2022-11-03T15:21:07.155Z,11.87
2022-11-03T15:26:20.147Z,11.79
2022-11-03T15:28:46.677Z,11.76
2022-11-03T15:31:13.386Z,11.63
2022-11-03T15:33:39.961Z,11.67
2022-11-03T15:36:08.202Z,11.52
2022-11-03T15:38:35.414Z,11.59
2022-11-03T15:41:17.158Z,11.41
2022-11-03T15:43:45.433Z,11.46
2022-11-03T15:46:13.756Z,11.40
2022-11-03T15:48:40.813Z,11.39
2022-11-03T15:51:07.565Z,11.46
2022-11-03T15:53:34.068Z,11.45
2022-11-03T15:56:01.128Z,11.46
2022-11-03T15:58:27.678Z,11.45
2022-11-03T16:00:54.370Z,11.47
2022-11-03T16:03:20.951Z,11.48
2022-11-03T16:05:47.625Z,11.13
2022-11-03T16:08:14.074Z,11.44
2022-11-03T16:10:44.659Z,11.44
2022-11-03T16:13:16.138Z,11.32
2022-11-03T16:15:42.676Z,11.42
2022-11-03T16:18:09.541Z,11.10
2022-11-03T16:20:36.182Z,11.42
2022-11-03T16:23:02.671Z,11.39
2022-11-03T16:25:29.171Z,10.94
2022-11-03T16:27:55.669Z,11.27
2022-11-03T16:30:22.232Z,11.21
2022-11-03T16:32:52.960Z,11.21
2022-11-03T16:35:20.218Z,11.21
2022-11-03T16:37:46.954Z,11.16
2022-11-03T16:40:19.063Z,11.15
2022-11-03T16:42:46.438Z,11.14
2022-11-03T16:45:18.536Z,11.02
2022-11-03T16:47:46.932Z,11.08
2022-11-03T16:50:14.186Z,11.10
2022-11-03T16:52:40.766Z,11.01
2022-11-03T16:55:07.898Z,11.05
2022-11-03T16:57:34.693Z,11.07
2022-11-03T17:00:01.230Z,11.15
2022-11-03T17:02:28.013Z,11.13
2022-11-03T17:04:54.947Z,11.06
2022-11-03T17:07:21.730Z,11.18
2022-11-03T17:09:48.353Z,11.12
2022-11-03T17:12:14.884Z,11.14
2022-11-03T17:14:41.845Z,10.65
2022-11-03T17:17:08.674Z,10.88
2022-11-03T17:19:40.833Z,10.66
2022-11-03T17:22:12.636Z,10.82
2022-11-03T17:24:39.346Z,10.33
2022-11-03T17:27:22.390Z,10.49
2022-11-03T17:29:59.323Z,11.03
2022-11-03T17:32:33.555Z,10.89
2022-11-03T17:35:00.480Z,10.90
2022-11-03T17:37:32.341Z,11.08
2022-11-03T17:39:59.182Z,10.84
2022-11-03T17:42:27.287Z,10.49
2022-11-03T17:45:06.227Z,10.38
2022-11-03T17:47:34.457Z,11.19
2022-11-03T17:50:04.987Z,11.20
2022-11-03T17:52:33.275Z,11.21
2022-11-03T17:55:06.427Z,11.22
2022-11-03T17:57:33.368Z,10.85
2022-11-03T18:00:06.970Z,10.58
2022-11-03T18:02:38.091Z,11.27
2022-11-03T18:05:20.249Z,11.25
2022-11-03T18:07:48.780Z,11.22
2022-11-03T18:10:15.780Z,10.51
2022-11-03T18:13:04.399Z,10.74
2022-11-03T18:15:33.458Z,11.19
2022-11-03T18:18:01.497Z,10.94
2022-11-03T18:20:29.909Z,11.10
2022-11-03T18:23:10.923Z,11.46
2022-11-03T18:25:37.482Z,11.49
2022-11-03T18:28:04.338Z,11.42
2022-11-03T18:30:31.042Z,11.33
2022-11-03T18:32:57.934Z,11.24
2022-11-03T18:35:33.208Z,11.35
2022-11-03T18:38:00.237Z,11.35
2022-11-03T18:40:28.124Z,11.11
2022-11-03T18:42:54.722Z,11.35
2022-11-03T18:45:21.883Z,11.02
2022-11-03T18:47:48.572Z,11.15
2022-11-03T18:50:17.137Z,11.29
2022-11-03T18:52:53.015Z,11.38
2022-11-03T18:55:26.629Z,11.40
2022-11-03T18:57:56.661Z,11.00
2022-11-03T19:00:29.935Z,10.73
2022-11-03T19:02:56.737Z,11.13
2022-11-03T19:05:23.956Z,11.32
2022-11-03T19:08:38.228Z,10.78
2022-11-03T19:14:39.159Z,11.27
2022-11-03T19:17:24.345Z,10.63
2022-11-03T19:20:00.863Z,10.96
2022-11-03T19:22:33.646Z,11.04
2022-11-03T19:25:03.983Z,11.34
2022-11-03T19:27:33.981Z,10.95
2022-11-03T19:30:04.710Z,10.99
2022-11-03T19:32:56.080Z,10.74
2022-11-03T19:35:41.421Z,11.40
2022-11-03T19:38:15.054Z,11.29
2022-11-03T19:41:12.960Z,11.53
2022-11-03T19:43:39.900Z,10.87
2022-11-03T19:46:23.662Z,11.28
2022-11-03T19:48:50.684Z,11.62
2022-11-03T19:51:23.234Z,11.10
2022-11-03T19:53:53.421Z,10.85
2022-11-03T19:56:40.406Z,11.39
2022-11-03T19:59:09.726Z,11.53
2022-11-03T20:01:36.839Z,11.39
2022-11-03T20:04:21.415Z,11.29
2022-11-03T20:06:58.936Z,10.94
2022-11-03T20:09:37.341Z,11.28
2022-11-03T20:12:12.813Z,11.20
2022-11-03T20:17:45.094Z,10.98
2022-11-03T20:20:55.412Z,11.59
2022-11-03T20:23:56.182Z,11.54
2022-11-03T20:29:36.550Z,11.12
2022-11-03T20:32:15.264Z,11.59
2022-11-03T20:35:02.057Z,10.80
2022-11-03T20:37:32.798Z,11.32
2022-11-03T20:40:09.656Z,11.08
2022-11-03T20:43:13.622Z,11.58
2022-11-03T20:45:43.727Z,10.96
2022-11-03T20:48:39.052Z,11.54
2022-11-03T20:51:14.585Z,10.70
2022-11-03T20:53:47.855Z,11.59
2022-11-03T20:56:50.584Z,11.28
2022-11-03T20:59:36.070Z,10.95
2022-11-03T21:02:17.707Z,11.56
2022-11-03T21:04:52.148Z,10.91
2022-11-03T21:11:16.658Z,11.53
2022-11-03T21:13:45.645Z,11.22
2022-11-03T21:16:36.346Z,11.24
2022-11-03T21:19:37.668Z,11.04
2022-11-03T21:22:53.916Z,11.49
2022-11-03T21:25:29.683Z,11.22
2022-11-03T21:28:04.152Z,11.52
2022-11-03T21:30:38.968Z,11.05
2022-11-03T21:36:08.490Z,11.48
2022-11-03T21:38:39.188Z,10.97
2022-11-03T21:41:33.230Z,11.45
2022-11-03T21:44:22.517Z,10.62
2022-11-03T21:47:40.733Z,11.45
2022-11-03T21:53:02.185Z,10.65
2022-11-03T21:55:59.564Z,10.80
2022-11-03T21:58:35.576Z,10.95
2022-11-03T22:01:34.023Z,10.45
2022-11-03T22:04:07.568Z,11.42
2022-11-03T22:09:33.703Z,11.08
2022-11-03T22:12:06.772Z,10.99
2022-11-03T22:14:58.934Z,11.41
2022-11-03T22:17:39.086Z,10.52
2022-11-03T22:20:30.571Z,10.91
2022-11-03T22:23:19.264Z,11.31
2022-11-03T22:26:09.226Z,10.53
2022-11-03T22:28:36.413Z,11.02
2022-11-03T22:31:36.169Z,10.90
2022-11-03T22:34:37.458Z,10.74
2022-11-03T22:37:48.386Z,11.42
2022-11-03T22:41:19.240Z,11.13
2022-11-03T22:44:09.135Z,11.01
2022-11-03T22:46:43.825Z,11.41
2022-11-03T22:49:49.254Z,10.56
2022-11-03T22:52:36.907Z,10.41
2022-11-03T22:55:15.388Z,10.86
2022-11-03T22:57:51.984Z,11.07
2022-11-03T23:01:11.141Z,10.70
2022-11-03T23:03:52.605Z,10.28
2022-11-03T23:06:48.828Z,10.18
2022-11-03T23:09:19.806Z,11.04
2022-11-03T23:11:54.415Z,10.49
2022-11-03T23:14:44.445Z,10.69
2022-11-03T23:17:14.380Z,10.69
2022-11-03T23:20:08.030Z,10.39
2022-11-03T23:22:42.849Z,10.25
2022-11-03T23:25:24.853Z,10.29
2022-11-03T23:28:04.406Z,10.68
2022-11-03T23:30:41.884Z,10.53
2022-11-03T23:33:32.427Z,10.33
2022-11-03T23:36:06.671Z,10.21
2022-11-03T23:38:56.339Z,11.09
2022-11-03T23:41:37.210Z,11.11
2022-11-03T23:44:12.002Z,11.14
2022-11-03T23:47:05.817Z,10.37
2022-11-03T23:49:55.968Z,10.69
2022-11-03T23:52:39.154Z,10.58
2022-11-03T23:55:13.804Z,10.61
2022-11-03T23:58:09.217Z,11.31
